createdAt,value
2018-10-11T00:01:25.454Z,13.80
2018-10-11T00:03:51.710Z,14.18
2018-10-11T00:06:18.734Z,13.50
2018-10-11T00:08:46.251Z,13.35
2018-10-11T00:11:13.224Z,14.20
2018-10-11T00:13:40.223Z,13.78
2018-10-11T00:16:07.206Z,13.72
2018-10-11T00:18:34.192Z,13.32
2018-10-11T00:21:01.202Z,14.03
2018-10-11T00:23:28.159Z,13.87
2018-10-11T00:25:55.273Z,14.07
2018-10-11T00:28:22.255Z,13.60
2018-10-11T00:30:49.290Z,13.75
2018-10-11T00:33:16.178Z,13.65
2018-10-11T00:35:43.174Z,13.85
2018-10-11T00:38:10.138Z,13.48
2018-10-11T00:40:37.115Z,13.68
2018-10-11T00:43:04.090Z,13.98
2018-10-11T00:45:31.067Z,14.35
2018-10-11T00:47:58.022Z,14.07
2018-10-11T00:50:25.006Z,14.50
2018-10-11T00:52:51.981Z,14.28
2018-10-11T00:55:18.960Z,15.03
2018-10-11T00:57:45.946Z,14.55
2018-10-11T01:00:12.901Z,14.73
2018-10-11T01:02:40.127Z,14.50
2018-10-11T01:05:07.125Z,14.98
2018-10-11T01:07:34.093Z,14.73
2018-10-11T01:10:01.700Z,14.58
2018-10-11T01:12:28.659Z,14.80
2018-10-11T01:14:55.635Z,15.25
2018-10-11T01:17:23.065Z,14.98
2018-10-11T01:19:50.026Z,15.13
2018-10-11T01:22:16.985Z,14.78
2018-10-11T01:24:43.970Z,15.70
2018-10-11T01:27:10.950Z,15.10
2018-10-11T01:29:38.064Z,15.60
2018-10-11T01:32:05.452Z,15.80
2018-10-11T01:34:32.438Z,15.50
2018-10-11T01:36:59.430Z,15.32
2018-10-11T01:39:26.390Z,15.28
2018-10-11T01:41:53.403Z,15.50
2018-10-11T01:44:20.358Z,15.55
2018-10-11T01:46:47.318Z,15.43
2018-10-11T01:49:14.326Z,15.60
2018-10-11T01:51:41.302Z,16.40
2018-10-11T01:54:08.266Z,16.17
2018-10-11T01:56:35.311Z,17.05
2018-10-11T01:59:02.245Z,16.75
2018-10-11T02:01:29.251Z,16.75
2018-10-11T02:03:56.255Z,16.87
2018-10-11T02:06:23.282Z,16.45
2018-10-11T02:08:50.264Z,16.85
2018-10-11T02:11:17.945Z,17.30
2018-10-11T02:13:44.930Z,17.87
2018-10-11T02:16:12.253Z,17.40
2018-10-11T02:18:39.340Z,16.65
2018-10-11T02:21:06.426Z,16.67
2018-10-11T02:23:33.473Z,16.70
2018-10-11T02:26:00.485Z,16.57
2018-10-11T02:28:27.459Z,16.67
2018-10-11T02:30:54.433Z,17.60
2018-10-11T02:33:21.433Z,18.00
2018-10-11T02:35:48.385Z,18.10
2018-10-11T02:38:15.401Z,18.15
2018-10-11T02:40:42.482Z,18.25
2018-10-11T02:43:09.453Z,17.50
2018-10-11T02:45:36.414Z,17.85
2018-10-11T02:48:03.455Z,18.57
2018-10-11T02:50:30.402Z,18.70
2018-10-11T02:52:57.365Z,18.57
2018-10-11T02:55:25.479Z,18.90
2018-10-11T02:58:04.133Z,18.82
2018-10-11T03:00:31.968Z,19.52
2018-10-11T03:03:00.741Z,19.37
2018-10-11T03:05:27.728Z,19.25
2018-10-11T03:07:54.720Z,19.10
2018-10-11T03:10:21.705Z,19.62
2018-10-11T03:12:49.229Z,19.07
2018-10-11T03:15:16.209Z,20.37
2018-10-11T03:17:43.182Z,19.57
2018-10-11T03:20:10.157Z,20.08
2018-10-11T03:22:37.147Z,19.45
2018-10-11T03:25:04.214Z,19.57
2018-10-11T03:27:31.133Z,19.73
2018-10-11T03:29:58.126Z,20.43
2018-10-11T03:32:25.103Z,20.43
2018-10-11T03:34:52.056Z,19.55
2018-10-11T03:37:19.048Z,20.02
2018-10-11T03:39:46.010Z,19.42
2018-10-11T03:42:12.974Z,19.65
2018-10-11T03:44:39.961Z,20.75
2018-10-11T03:47:06.930Z,20.40
2018-10-11T03:49:33.896Z,19.48
2018-10-11T03:52:00.881Z,20.70
2018-10-11T03:54:27.866Z,20.55
2018-10-11T03:56:55.000Z,20.12
2018-10-11T03:59:21.985Z,20.35
2018-10-11T04:01:48.950Z,19.70
2018-10-11T04:04:15.875Z,20.10
2018-10-11T04:06:42.849Z,20.30
2018-10-11T04:09:09.837Z,21.12
2018-10-11T04:11:36.785Z,20.62
2018-10-11T04:14:04.384Z,20.83
2018-10-11T04:16:31.314Z,20.20
2018-10-11T04:18:58.246Z,20.47
2018-10-11T04:21:25.246Z,20.15
2018-10-11T04:23:52.193Z,20.10
2018-10-11T04:26:19.134Z,20.20
2018-10-11T04:28:46.107Z,19.50
2018-10-11T04:31:13.018Z,20.00
2018-10-11T04:33:39.947Z,20.00
2018-10-11T04:36:06.951Z,21.60
2018-10-11T04:38:33.838Z,19.82
2018-10-11T04:41:00.782Z,20.37
2018-10-11T04:43:27.749Z,21.17
2018-10-11T04:45:54.717Z,20.02
2018-10-11T04:48:21.658Z,20.00
2018-10-11T04:50:48.646Z,20.32
2018-10-11T04:53:15.614Z,20.45
2018-10-11T04:55:43.557Z,20.63
2018-10-11T04:58:10.634Z,20.35
2018-10-11T05:00:37.637Z,19.90
2018-10-11T05:03:04.906Z,20.10
2018-10-11T05:05:31.862Z,19.75
2018-10-11T05:07:58.823Z,19.70
2018-10-11T05:10:25.762Z,19.55
2018-10-11T05:12:52.736Z,20.70
2018-10-11T05:15:20.118Z,19.93
2018-10-11T05:17:47.918Z,20.43
2018-10-11T05:20:14.913Z,19.98
2018-10-11T05:22:41.856Z,19.67
2018-10-11T05:25:08.809Z,19.45
2018-10-11T05:27:35.770Z,19.67
2018-10-11T05:30:02.862Z,19.65
2018-10-11T05:32:29.878Z,19.10
2018-10-11T05:34:56.854Z,19.20
2018-10-11T05:37:23.787Z,20.30
2018-10-11T05:39:50.722Z,20.52
2018-10-11T05:42:17.667Z,20.17
2018-10-11T05:44:44.598Z,18.90
2018-10-11T05:47:11.603Z,19.70
2018-10-11T05:49:38.611Z,19.20
2018-10-11T05:52:06.026Z,20.37
2018-10-11T05:54:32.954Z,19.82
2018-10-11T05:56:59.902Z,20.62
2018-10-11T05:59:26.839Z,19.75
2018-10-11T06:01:53.761Z,20.40
2018-10-11T06:04:20.770Z,19.65
2018-10-11T06:06:48.320Z,22.15
2018-10-11T06:09:15.691Z,22.48
2018-10-11T06:11:43.288Z,20.52
2018-10-11T06:14:10.692Z,20.60
2018-10-11T06:16:38.207Z,22.20
2018-10-11T06:19:05.426Z,19.00
2018-10-11T06:21:32.391Z,18.70
2018-10-11T06:23:59.346Z,18.95
2018-10-11T06:26:26.310Z,19.55
2018-10-11T06:28:53.257Z,19.62
2018-10-11T06:31:20.323Z,19.70
2018-10-11T06:33:47.293Z,19.05
2018-10-11T06:36:14.788Z,18.70
2018-10-11T06:38:41.683Z,19.52
2018-10-11T06:41:08.655Z,19.25
2018-10-11T06:43:35.723Z,19.30
2018-10-11T06:46:02.678Z,19.37
2018-10-11T06:48:29.637Z,18.30
2018-10-11T06:50:56.577Z,18.02
2018-10-11T06:53:23.508Z,18.13
2018-10-11T06:55:50.491Z,17.67
2018-10-11T06:58:17.430Z,18.35
2018-10-11T07:00:44.370Z,18.15
2018-10-11T07:03:11.336Z,18.20
2018-10-11T07:05:38.318Z,18.02
2018-10-11T07:08:05.333Z,17.73
2018-10-11T07:10:32.322Z,17.20
2018-10-11T07:12:59.319Z,17.17
2018-10-11T07:15:26.628Z,16.75
2018-10-11T07:17:53.958Z,16.10
2018-10-11T07:20:20.894Z,16.97
2018-10-11T07:22:47.838Z,16.47
2018-10-11T07:25:14.813Z,16.45
2018-10-11T07:27:41.764Z,17.02
2018-10-11T07:30:09.752Z,16.23
2018-10-11T07:32:35.772Z,16.37
2018-10-11T07:35:02.754Z,15.93
2018-10-11T07:37:29.641Z,16.40
2018-10-11T07:39:56.601Z,15.43
2018-10-11T07:42:23.534Z,16.02
2018-10-11T07:44:50.502Z,15.40
2018-10-11T07:47:17.489Z,14.75
2018-10-11T07:49:44.400Z,13.80
2018-10-11T07:52:11.325Z,14.03
2018-10-11T07:54:38.454Z,14.25
2018-10-11T07:57:05.611Z,14.23
2018-10-11T07:59:32.579Z,14.55
2018-10-11T08:01:59.527Z,14.23
2018-10-11T08:04:26.475Z,15.00
2018-10-11T08:06:53.436Z,14.58
2018-10-11T08:09:20.391Z,15.40
2018-10-11T08:11:47.511Z,15.98
2018-10-11T08:14:14.722Z,16.17
2018-10-11T08:16:41.826Z,16.87
2018-10-11T08:19:09.464Z,16.77
2018-10-11T08:21:36.239Z,17.87
2018-10-11T08:24:03.199Z,17.00
2018-10-11T08:26:30.606Z,17.48
2018-10-11T08:28:57.067Z,16.45
2018-10-11T08:31:24.031Z,17.27
2018-10-11T08:33:50.986Z,15.83
2018-10-11T08:36:17.957Z,17.17
2018-10-11T08:38:44.866Z,16.25
2018-10-11T08:41:11.814Z,16.02
2018-10-11T08:43:38.892Z,16.12
2018-10-11T08:46:05.758Z,15.55
2018-10-11T08:48:32.743Z,15.88
2018-10-11T08:50:59.717Z,15.45
2018-10-11T08:53:26.791Z,14.73
2018-10-11T08:55:53.721Z,15.20
2018-10-11T08:58:20.646Z,14.07
2018-10-11T09:00:47.602Z,13.40
2018-10-11T09:03:14.570Z,12.82
2018-10-11T09:05:41.572Z,12.10
2018-10-11T09:08:08.427Z,11.55
2018-10-11T09:10:38.346Z,10.97
2018-10-11T09:13:02.298Z,10.32
2018-10-11T09:15:29.259Z,9.80
2018-10-11T09:20:21.386Z,9.80
2018-10-11T09:22:48.466Z,8.90
2018-10-11T09:25:15.813Z,8.53
2018-10-11T09:27:42.361Z,8.20
2018-10-11T09:30:09.347Z,8.05
2018-10-11T09:32:36.291Z,8.20
2018-10-11T09:35:03.231Z,7.95
2018-10-11T09:37:30.358Z,7.90
2018-10-11T09:39:57.302Z,8.10
2018-10-11T09:42:24.235Z,8.20
2018-10-11T09:44:51.191Z,8.18
2018-10-11T09:47:18.101Z,7.97
2018-10-11T09:49:45.026Z,8.68
2018-10-11T09:52:11.970Z,9.75
2018-10-11T09:54:38.954Z,8.80
2018-10-11T09:57:23.619Z,7.80
2018-10-11T09:59:50.567Z,8.15
2018-10-11T10:02:17.525Z,8.15
2018-10-11T10:04:45.776Z,8.80
2018-10-11T10:07:12.745Z,8.63
2018-10-11T10:09:40.334Z,9.00
2018-10-11T10:12:08.171Z,9.30
2018-10-11T10:14:35.235Z,8.80
2018-10-11T10:17:02.204Z,8.40
2018-10-11T10:19:29.175Z,8.30
2018-10-11T10:21:56.432Z,9.68
2018-10-11T10:24:23.415Z,8.60
2018-10-11T10:26:50.403Z,8.63
2018-10-11T10:29:18.222Z,7.72
2018-10-11T10:31:45.154Z,8.40
2018-10-11T10:34:12.124Z,8.30
2018-10-11T10:36:39.050Z,8.40
2018-10-11T10:39:06.995Z,9.50
2018-10-11T10:41:33.943Z,8.97
2018-10-11T10:44:00.899Z,9.40
2018-10-11T10:46:27.858Z,9.53
2018-10-11T10:48:54.821Z,9.47
2018-10-11T10:51:21.871Z,8.20
2018-10-11T10:53:48.810Z,9.45
2018-10-11T10:56:15.778Z,9.48
2018-10-11T10:58:42.711Z,9.60
2018-10-11T11:01:09.634Z,8.80
2018-10-11T11:03:36.602Z,9.45
2018-10-11T11:06:03.539Z,9.30
2018-10-11T11:08:30.566Z,8.70
2018-10-11T11:10:57.514Z,8.60
2018-10-11T11:13:24.466Z,8.68
2018-10-11T11:15:51.418Z,8.73
2018-10-11T11:18:18.391Z,9.45
2018-10-11T11:20:45.318Z,9.20
2018-10-11T11:23:12.762Z,9.40
2018-10-11T11:25:39.706Z,7.57
2018-10-11T11:28:06.634Z,8.30
2018-10-11T11:30:33.582Z,8.15
2018-10-11T11:33:00.612Z,8.58
2018-10-11T11:35:27.678Z,7.60
2018-10-11T11:37:54.618Z,7.73
2018-10-11T11:40:21.591Z,6.95
2018-10-11T11:42:48.529Z,6.67
2018-10-11T11:45:15.470Z,6.67
2018-10-11T11:47:42.415Z,6.90
2018-10-11T11:50:09.387Z,6.53
2018-10-11T11:52:36.355Z,6.70
2018-10-11T11:55:03.327Z,6.53
2018-10-11T11:57:30.238Z,6.73
2018-10-11T11:59:57.178Z,6.90
2018-10-11T12:02:24.138Z,7.05
2018-10-11T12:04:51.080Z,7.30
2018-10-11T12:07:18.001Z,6.77
2018-10-11T12:09:44.963Z,6.30
2018-10-11T12:12:53.734Z,6.17
2018-10-11T12:15:22.109Z,5.87
2018-10-11T12:17:49.682Z,5.90
2018-10-11T12:20:16.639Z,6.05
2018-10-11T12:22:43.614Z,6.00
2018-10-11T12:25:11.112Z,5.97
2018-10-11T12:27:38.047Z,7.28
2018-10-11T12:30:05.029Z,6.42
2018-10-11T12:32:31.946Z,7.10
2018-10-11T12:34:58.883Z,6.90
2018-10-11T12:37:25.845Z,6.87
2018-10-11T12:39:52.774Z,6.17
2018-10-11T12:42:19.759Z,6.17
2018-10-11T12:44:46.755Z,5.80
2018-10-11T12:47:13.702Z,6.30
2018-10-11T12:49:44.223Z,5.75
2018-10-11T12:52:07.706Z,6.85
2018-10-11T12:54:34.549Z,6.37
2018-10-11T12:57:01.586Z,6.85
2018-10-11T12:59:28.447Z,6.55
2018-10-11T13:01:55.398Z,6.33
2018-10-11T13:04:22.339Z,6.10
2018-10-11T13:06:49.331Z,5.90
2018-10-11T13:09:16.336Z,5.78
2018-10-11T13:11:43.234Z,5.67
2018-10-11T13:14:10.205Z,6.15
2018-10-11T13:16:37.171Z,6.00
2018-10-11T13:19:04.170Z,5.93
2018-10-11T13:21:31.129Z,5.50
2018-10-11T13:23:58.048Z,5.45
2018-10-11T13:26:25.708Z,5.72
2018-10-11T13:28:52.703Z,6.00
2018-10-11T13:31:19.609Z,5.58
2018-10-11T13:33:46.545Z,5.40
2018-10-11T13:36:13.488Z,5.70
2018-10-11T13:38:40.435Z,5.42
2018-10-11T13:41:07.441Z,5.00
2018-10-11T13:43:34.366Z,5.20
2018-10-11T13:46:02.995Z,6.00
2018-10-11T13:48:28.425Z,5.55
2018-10-11T13:50:55.504Z,5.45
2018-10-11T13:53:24.736Z,5.45
2018-10-11T13:55:54.895Z,5.58
2018-10-11T13:58:16.398Z,5.25
2018-10-11T14:00:43.355Z,5.67
2018-10-11T14:03:10.373Z,5.15
2018-10-11T14:05:37.327Z,5.10
2018-10-11T14:08:04.234Z,5.30
2018-10-11T14:10:31.262Z,5.62
2018-10-11T14:12:58.146Z,5.08
2018-10-11T14:15:25.090Z,4.80
2018-10-11T14:17:52.102Z,4.87
2018-10-11T14:20:18.983Z,5.40
2018-10-11T14:22:45.939Z,4.97
2018-10-11T14:25:12.886Z,4.72
2018-10-11T14:27:40.680Z,4.72
2018-10-11T14:30:07.696Z,4.47
2018-10-11T14:32:34.634Z,4.70
2018-10-11T14:35:01.624Z,4.93
2018-10-11T14:37:28.555Z,5.03
2018-10-11T14:39:55.492Z,4.80
2018-10-11T14:42:22.438Z,4.90
2018-10-11T14:44:49.370Z,5.00
2018-10-11T14:47:16.322Z,4.87
2018-10-11T14:49:43.282Z,4.87
2018-10-11T14:52:10.239Z,4.65
2018-10-11T14:54:37.167Z,4.60
2018-10-11T14:57:05.506Z,4.75
2018-10-11T14:59:32.437Z,4.30
2018-10-11T15:01:59.526Z,4.35
2018-10-11T15:04:26.547Z,4.65
2018-10-11T15:06:53.667Z,4.60
2018-10-11T15:09:20.625Z,4.70
2018-10-11T15:11:47.644Z,4.53
2018-10-11T15:14:14.562Z,4.72
2018-10-11T15:16:41.517Z,4.72
2018-10-11T15:19:08.474Z,4.75
2018-10-11T15:21:35.432Z,4.97
2018-10-11T15:24:02.556Z,4.70
2018-10-11T15:26:29.442Z,5.28
2018-10-11T15:28:56.879Z,5.22
2018-10-11T15:31:23.965Z,5.00
2018-10-11T15:33:50.926Z,4.92
2018-10-11T15:36:17.884Z,5.40
2018-10-11T15:38:44.849Z,5.50
2018-10-11T15:41:11.775Z,5.00
2018-10-11T15:43:38.720Z,5.03
2018-10-11T15:46:05.699Z,4.97
2018-10-11T15:48:32.746Z,5.07
2018-10-11T15:50:59.674Z,5.13
2018-10-11T15:53:26.623Z,4.90
2018-10-11T15:55:53.564Z,4.90
2018-10-11T15:58:20.557Z,4.90
2018-10-11T16:00:47.429Z,4.70
2018-10-11T16:03:14.375Z,5.20
2018-10-11T16:05:41.506Z,5.12
2018-10-11T16:08:08.414Z,5.50
2018-10-11T16:10:35.383Z,6.00
2018-10-11T16:13:02.372Z,6.28
2018-10-11T16:15:29.342Z,5.80
2018-10-11T16:17:56.307Z,5.58
2018-10-11T16:20:23.267Z,5.40
2018-10-11T16:22:50.223Z,5.70
2018-10-11T16:25:17.175Z,5.37
2018-10-11T16:27:44.118Z,6.12
2018-10-11T16:30:11.278Z,5.95
2018-10-11T16:32:38.242Z,6.00
2018-10-11T16:35:05.170Z,6.08
2018-10-11T16:37:32.101Z,5.75
2018-10-11T16:39:59.070Z,5.72
2018-10-11T16:42:26.022Z,7.03
2018-10-11T16:44:52.962Z,6.95
2018-10-11T16:47:19.932Z,11.08
2018-10-11T16:49:47.021Z,7.97
2018-10-11T16:52:13.915Z,7.87
2018-10-11T16:54:42.758Z,8.03
2018-10-11T16:57:10.493Z,6.83
2018-10-11T16:59:37.482Z,12.73
2018-10-11T17:02:04.438Z,10.58
2018-10-11T17:04:31.423Z,8.88
2018-10-11T17:06:58.313Z,7.72
2018-10-11T17:09:25.311Z,7.97
2018-10-11T17:11:52.450Z,8.10
2018-10-11T17:14:19.373Z,7.30
2018-10-11T17:16:46.329Z,7.37
2018-10-11T17:19:13.267Z,7.40
2018-10-11T17:21:40.269Z,7.40
2018-10-11T17:24:07.163Z,9.95
2018-10-11T17:26:34.131Z,10.50
2018-10-11T17:29:01.075Z,8.43
2018-10-11T17:31:28.482Z,8.10
2018-10-11T17:33:55.439Z,7.50
2018-10-11T17:36:22.386Z,7.47
2018-10-11T17:38:49.356Z,9.18
2018-10-11T17:41:16.323Z,7.50
2018-10-11T17:43:43.466Z,7.33
2018-10-11T17:46:10.406Z,7.17
2018-10-11T17:48:37.831Z,7.50
2018-10-11T17:51:04.759Z,7.87
2018-10-11T17:53:31.734Z,7.53
2018-10-11T17:55:58.674Z,7.30
2018-10-11T17:58:25.614Z,7.45
2018-10-11T18:00:52.558Z,7.42
2018-10-11T18:03:19.575Z,7.42
2018-10-11T18:05:46.583Z,7.60
2018-10-11T18:08:14.059Z,7.22
2018-10-11T18:10:41.007Z,7.03
2018-10-11T18:13:08.079Z,7.47
2018-10-11T18:15:35.071Z,7.20
2018-10-11T18:18:01.997Z,6.87
2018-10-11T18:20:28.991Z,7.15
2018-10-11T18:22:55.949Z,7.17
2018-10-11T18:25:22.955Z,6.92
2018-10-11T18:27:49.902Z,7.40
2018-10-11T18:30:16.851Z,7.25
2018-10-11T18:32:44.414Z,7.92
2018-10-11T18:35:11.370Z,10.70
2018-10-11T18:37:38.362Z,23.10
2018-10-11T18:40:05.326Z,8.50
2018-10-11T18:42:32.271Z,7.65
2018-10-11T18:44:59.235Z,8.13
2018-10-11T18:47:26.199Z,8.00
2018-10-11T18:49:53.183Z,7.42
2018-10-11T18:52:20.139Z,7.90
2018-10-11T18:54:47.088Z,8.55
2018-10-11T18:57:14.035Z,8.20
2018-10-11T18:59:40.997Z,8.30
2018-10-11T19:02:07.943Z,7.83
2018-10-11T19:04:34.925Z,11.78
2018-10-11T19:07:01.848Z,18.35
2018-10-11T19:09:28.790Z,7.80
2018-10-11T19:11:55.731Z,8.33
2018-10-11T19:14:22.696Z,7.90
2018-10-11T19:16:49.634Z,8.13
2018-10-11T19:19:16.566Z,7.83
2018-10-11T19:21:43.555Z,7.92
2018-10-11T19:24:10.500Z,7.67
2018-10-11T19:26:37.436Z,7.42
2018-10-11T19:29:04.394Z,7.17
2018-10-11T19:31:31.359Z,7.00
2018-10-11T19:33:59.385Z,7.85
2018-10-11T19:36:26.355Z,7.85
2018-10-11T19:38:53.301Z,9.55
2018-10-11T19:41:20.252Z,7.75
2018-10-11T19:43:47.239Z,7.40
2018-10-11T19:46:14.313Z,7.72
2018-10-11T19:48:41.249Z,7.95
2018-10-11T19:51:08.209Z,7.27
2018-10-11T19:53:35.177Z,7.35
2018-10-11T19:56:02.105Z,7.50
2018-10-11T19:58:29.074Z,7.12
2018-10-11T20:00:56.031Z,7.10
2018-10-11T20:03:22.977Z,7.20
2018-10-11T20:05:49.923Z,7.40
2018-10-11T20:08:16.974Z,7.50
2018-10-11T20:10:43.822Z,7.47
2018-10-11T20:13:10.758Z,7.50
2018-10-11T20:15:37.698Z,7.50
2018-10-11T20:18:05.015Z,7.15
2018-10-11T20:20:31.978Z,7.08
2018-10-11T20:22:58.933Z,7.12
2018-10-11T20:25:25.883Z,6.97
2018-10-11T20:27:52.850Z,7.40
2018-10-11T20:30:19.792Z,7.45
2018-10-11T20:32:46.737Z,7.62
2018-10-11T20:35:14.554Z,7.70
2018-10-11T20:37:41.504Z,7.65
2018-10-11T20:40:08.438Z,7.50
2018-10-11T20:42:35.383Z,8.00
2018-10-11T20:45:02.301Z,8.07
2018-10-11T20:47:29.250Z,8.10
2018-10-11T20:49:56.223Z,7.87
2018-10-11T20:52:23.168Z,7.85
2018-10-11T20:54:50.084Z,8.33
2018-10-11T20:57:17.066Z,7.92
2018-10-11T20:59:44.007Z,8.33
2018-10-11T21:02:10.955Z,8.30
2018-10-11T21:04:37.918Z,7.95
2018-10-11T21:07:05.398Z,8.57
2018-10-11T21:09:32.371Z,8.23
2018-10-11T21:11:59.379Z,8.15
2018-10-11T21:14:26.345Z,8.30
2018-10-11T21:16:53.311Z,8.00
2018-10-11T21:19:20.302Z,8.00
2018-10-11T21:21:47.764Z,7.92
2018-10-11T21:24:14.256Z,7.62
2018-10-11T21:26:41.254Z,7.90
2018-10-11T21:29:08.238Z,8.28
2018-10-11T21:31:35.197Z,7.80
2018-10-11T21:34:02.163Z,8.33
2018-10-11T21:36:30.476Z,7.80
2018-10-11T21:38:57.423Z,8.30
2018-10-11T21:41:24.413Z,7.80
2018-10-11T21:43:51.367Z,7.92
2018-10-11T21:46:18.386Z,7.67
2018-10-11T21:48:45.302Z,8.13
2018-10-11T21:51:12.250Z,8.00
2018-10-11T21:53:39.546Z,8.38
2018-10-11T21:56:06.577Z,8.33
2018-10-11T21:58:33.513Z,8.05
2018-10-11T22:01:06.258Z,8.25
2018-10-11T22:03:33.237Z,8.10
2018-10-11T22:06:00.193Z,8.58
2018-10-11T22:08:27.179Z,8.20
2018-10-11T22:10:54.116Z,8.13
2018-10-11T22:13:21.075Z,8.45
2018-10-11T22:15:48.021Z,8.08
2018-10-11T22:18:15.005Z,8.60
2018-10-11T22:20:42.047Z,8.40
2018-10-11T22:23:08.956Z,8.30
2018-10-11T22:25:35.924Z,8.28
2018-10-11T22:28:02.862Z,8.30
2018-10-11T22:30:29.822Z,8.30
2018-10-11T22:32:56.799Z,8.43
2018-10-11T22:35:23.902Z,8.10
2018-10-11T22:37:55.801Z,7.97
2018-10-11T22:40:22.775Z,7.90
2018-10-11T22:42:49.747Z,7.65
2018-10-11T22:45:16.687Z,7.60
2018-10-11T22:47:43.655Z,8.10
2018-10-11T22:50:10.614Z,8.25
2018-10-11T22:52:37.560Z,8.10
2018-10-11T22:55:04.570Z,8.15
2018-10-11T22:57:31.538Z,8.15
2018-10-11T22:59:58.502Z,7.83
2018-10-11T23:02:25.481Z,8.10
2018-10-11T23:04:52.435Z,8.38
2018-10-11T23:07:19.385Z,7.90
2018-10-11T23:09:46.752Z,7.78
2018-10-11T23:12:13.703Z,7.90
2018-10-11T23:14:40.774Z,8.00
2018-10-11T23:17:07.691Z,7.72
2018-10-11T23:19:34.633Z,7.63
2018-10-11T23:22:01.594Z,7.30
2018-10-11T23:24:28.580Z,7.33
2018-10-11T23:26:55.667Z,6.65
2018-10-11T23:29:22.615Z,6.58
2018-10-11T23:31:49.598Z,6.72
2018-10-11T23:34:16.550Z,6.70
2018-10-11T23:36:43.533Z,6.70
2018-10-11T23:39:11.687Z,6.58
2018-10-11T23:41:39.058Z,6.40
2018-10-11T23:44:06.059Z,6.60
2018-10-11T23:46:33.043Z,6.20
2018-10-11T23:48:59.998Z,6.75
2018-10-11T23:51:26.954Z,7.28
2018-10-11T23:53:53.934Z,6.70
2018-10-11T23:56:20.897Z,6.33
2018-10-11T23:58:47.861Z,6.10
